Okara Weather



Okara's Current Weather

Temprature 22.94o clear sky

clear sky

Rain: 0 %

Min Temprature22.94o
Max Temprature22.94o
Humidity85
Wind Speed2.22 m/h
Sun Rise05:56:31
Sun Set17:58:49
Current Time: 26-Sep-2022 07:05:52
Lat/Lon: 30.8081, 73.4458




Okara's Geo Location



Okara's Weather Forecast

Time Overall Temp Min Temp Max Temp Humidity Wind Speed Rain
26-Sep-2022 (Mon)
08:00:00 light rain 25.560 25.560 25.560 75 2.54 m/h 41 %
11:00:00 clear sky 27.820 27.820 32.350 66 2.01 m/h 0 %
14:00:00 clear sky 32.280 32.280 35.640 47 1.77 m/h 0 %
17:00:00 clear sky 34.710 34.710 34.710 35 2.1 m/h 0 %
20:00:00 light rain 28.530 28.530 28.530 52 2.68 m/h 20 %
23:00:00 clear sky 26.810 26.810 26.810 58 1.95 m/h 0 %
27-Sep-2022 (Tue)
02:00:00 clear sky 25.530 25.530 25.530 65 2.19 m/h 0 %
05:00:00 clear sky 24.910 24.910 24.910 74 2.43 m/h 0 %
08:00:00 clear sky 28.680 28.680 28.680 61 2.52 m/h 0 %
11:00:00 clear sky 34.810 34.810 34.810 37 1.87 m/h 0 %
14:00:00 clear sky 37.390 37.390 37.390 25 2.43 m/h 0 %
17:00:00 few clouds 35.970 35.970 35.970 25 2.68 m/h 0 %
20:00:00 broken clouds 29.720 29.720 29.720 47 2.86 m/h 0 %
23:00:00 scattered clouds 27.440 27.440 27.440 54 3.04 m/h 0 %
28-Sep-2022 (Wed)
02:00:00 clear sky 25.780 25.780 25.780 57 2.61 m/h 0 %
05:00:00 clear sky 24.980 24.980 24.980 55 2.62 m/h 0 %
08:00:00 clear sky 29.730 29.730 29.730 41 2.48 m/h 0 %
11:00:00 clear sky 36.110 36.110 36.110 23 3.6 m/h 0 %
14:00:00 clear sky 38.130 38.130 38.130 20 3.44 m/h 0 %
17:00:00 clear sky 36.220 36.220 36.220 22 3.2 m/h 0 %
20:00:00 few clouds 30.570 30.570 30.570 30 3.2 m/h 0 %
23:00:00 few clouds 28.020 28.020 28.020 37 0.47 m/h 0 %
29-Sep-2022 (Thu)
02:00:00 clear sky 26.710 26.710 26.710 42 1.37 m/h 0 %
05:00:00 clear sky 25.640 25.640 25.640 43 2.1 m/h 0 %
08:00:00 clear sky 29.670 29.670 29.670 30 2.72 m/h 0 %
11:00:00 clear sky 36.240 36.240 36.240 20 3.74 m/h 0 %
14:00:00 clear sky 38.110 38.110 38.110 18 3.53 m/h 0 %
17:00:00 clear sky 36.130 36.130 36.130 21 2.97 m/h 0 %
20:00:00 few clouds 30.450 30.450 30.450 30 3.67 m/h 0 %
23:00:00 clear sky 28.280 28.280 28.280 34 3.19 m/h 0 %
30-Sep-2022 (Fri)
02:00:00 clear sky 26.080 26.080 26.080 38 0.83 m/h 0 %
05:00:00 clear sky 25.160 25.160 25.160 39 1.68 m/h 0 %
08:00:00 clear sky 29.420 29.420 29.420 29 2.62 m/h 0 %
11:00:00 clear sky 36.130 36.130 36.130 21 3.74 m/h 0 %
14:00:00 clear sky 38.260 38.260 38.260 17 3.45 m/h 0 %
17:00:00 clear sky 36.110 36.110 36.110 20 3.03 m/h 0 %
20:00:00 clear sky 30.090 30.090 30.090 28 3.42 m/h 0 %
23:00:00 clear sky 28.170 28.170 28.170 33 3.02 m/h 0 %
01-Oct-2022 (Sat)
02:00:00 clear sky 25.790 25.790 25.790 38 1.11 m/h 0 %
05:00:00 clear sky 25.060 25.060 25.060 40 1.19 m/h 0 %

Famous Cities (61)